createdAt,value
2017-12-23T00:01:24.014Z,5.02
2017-12-23T00:03:49.803Z,4.97
2017-12-23T00:06:15.555Z,4.94
2017-12-23T00:08:41.298Z,4.94
2017-12-23T00:11:07.039Z,4.92
2017-12-23T00:13:33.066Z,4.96
2017-12-23T00:15:58.827Z,4.87
2017-12-23T00:18:24.548Z,4.84
2017-12-23T00:20:50.292Z,4.81
2017-12-23T00:23:16.031Z,4.80
2017-12-23T00:25:41.783Z,4.75
2017-12-23T00:28:07.523Z,4.65
2017-12-23T00:33:05.631Z,4.60
2017-12-23T00:35:32.399Z,4.62
2017-12-23T00:37:58.134Z,4.56
2017-12-23T00:40:23.911Z,4.53
2017-12-23T00:42:49.667Z,4.54
2017-12-23T00:45:15.402Z,4.54
2017-12-23T00:47:41.164Z,4.59
2017-12-23T00:50:07.294Z,4.55
2017-12-23T00:52:33.069Z,4.59
2017-12-23T00:54:58.819Z,4.55
2017-12-23T00:57:24.579Z,4.59
2017-12-23T00:59:50.360Z,4.61
2017-12-23T01:02:16.122Z,4.60
2017-12-23T01:04:41.875Z,4.58
2017-12-23T01:07:07.667Z,4.59
2017-12-23T01:09:33.401Z,4.55
2017-12-23T01:11:59.134Z,4.59
2017-12-23T01:14:24.885Z,4.58
2017-12-23T01:16:50.639Z,4.61
2017-12-23T01:19:16.403Z,4.62
2017-12-23T01:21:42.158Z,4.59
2017-12-23T01:24:07.914Z,4.58
2017-12-23T01:26:33.650Z,4.55
2017-12-23T01:28:59.425Z,4.53
2017-12-23T01:31:25.163Z,4.55
2017-12-23T01:33:50.936Z,4.55
2017-12-23T01:36:16.712Z,4.55
2017-12-23T01:38:42.505Z,4.54
2017-12-23T01:41:09.000Z,4.51
2017-12-23T01:43:34.779Z,4.55
2017-12-23T01:46:00.546Z,4.51
2017-12-23T01:48:32.952Z,4.48
2017-12-23T01:50:58.798Z,4.46
2017-12-23T01:53:24.538Z,4.45
2017-12-23T01:55:50.299Z,4.43
2017-12-23T01:58:16.101Z,4.43
2017-12-23T02:00:41.861Z,4.41
2017-12-23T02:03:07.713Z,4.41
2017-12-23T02:05:33.482Z,4.37
2017-12-23T02:07:59.230Z,4.36
2017-12-23T02:10:25.062Z,4.36
2017-12-23T02:12:50.805Z,4.34
2017-12-23T02:15:16.556Z,4.27
2017-12-23T02:17:42.324Z,4.23
2017-12-23T02:20:08.142Z,4.23
2017-12-23T02:22:33.894Z,4.23
2017-12-23T02:24:59.966Z,4.18
2017-12-23T02:27:25.720Z,4.13
2017-12-23T02:29:51.463Z,4.18
2017-12-23T02:32:17.211Z,4.14
2017-12-23T02:34:42.965Z,4.07
2017-12-23T02:37:08.759Z,4.10
2017-12-23T02:39:34.498Z,4.02
2017-12-23T02:42:00.264Z,4.01
2017-12-23T02:44:26.028Z,4.03
2017-12-23T02:46:51.794Z,3.99
2017-12-23T02:49:17.564Z,3.96
2017-12-23T02:51:43.330Z,3.95
2017-12-23T02:54:09.084Z,3.96
2017-12-23T02:56:34.839Z,3.93
2017-12-23T02:59:00.586Z,3.94
2017-12-23T03:01:26.434Z,3.93
2017-12-23T03:03:52.238Z,3.99
2017-12-23T03:06:17.984Z,3.91
2017-12-23T03:08:43.755Z,3.94
2017-12-23T03:11:09.500Z,3.96
2017-12-23T03:13:35.255Z,4.00
2017-12-23T03:16:01.010Z,4.04
2017-12-23T03:18:26.772Z,4.06
2017-12-23T03:20:52.555Z,4.08
2017-12-23T03:23:18.326Z,4.10
2017-12-23T03:25:44.067Z,4.12
2017-12-23T03:28:09.851Z,4.17
2017-12-23T03:30:35.595Z,4.19
2017-12-23T03:33:01.354Z,4.22
2017-12-23T03:35:27.111Z,4.22
2017-12-23T03:37:52.868Z,4.26
2017-12-23T03:40:19.614Z,4.28
2017-12-23T03:42:45.382Z,4.30
2017-12-23T03:45:11.135Z,4.34
2017-12-23T03:47:36.898Z,4.34
2017-12-23T03:50:02.672Z,4.36
2017-12-23T03:52:28.417Z,4.36
2017-12-23T03:54:54.187Z,4.41
2017-12-23T03:57:19.944Z,4.42
2017-12-23T03:59:45.706Z,4.44
2017-12-23T04:02:11.458Z,4.50
2017-12-23T04:04:37.215Z,4.47
2017-12-23T04:07:02.943Z,4.49
2017-12-23T04:09:28.697Z,4.54
2017-12-23T04:11:54.439Z,4.56
2017-12-23T04:14:20.187Z,4.58
2017-12-23T04:16:45.932Z,4.62
2017-12-23T04:19:11.668Z,4.66
2017-12-23T04:21:37.406Z,4.68
2017-12-23T04:24:03.139Z,4.71
2017-12-23T04:26:28.891Z,4.73
2017-12-23T04:28:54.630Z,4.78
2017-12-23T04:31:20.379Z,4.86
2017-12-23T04:33:46.128Z,4.95
2017-12-23T04:36:11.891Z,5.04
2017-12-23T04:38:37.646Z,5.06
2017-12-23T04:41:03.406Z,5.13
2017-12-23T04:43:29.143Z,5.20
2017-12-23T04:45:54.890Z,5.29
2017-12-23T04:48:20.638Z,5.34
2017-12-23T04:50:46.399Z,5.31
2017-12-23T04:53:12.156Z,5.38
2017-12-23T04:55:37.920Z,5.44
2017-12-23T04:58:03.683Z,5.50
2017-12-23T05:00:29.460Z,5.52
2017-12-23T05:02:55.206Z,5.58
2017-12-23T05:05:20.960Z,5.62
2017-12-23T05:07:46.730Z,5.69
2017-12-23T05:10:12.475Z,5.77
2017-12-23T05:12:38.227Z,5.80
2017-12-23T05:15:04.000Z,5.88
2017-12-23T05:17:29.762Z,5.92
2017-12-23T05:19:55.518Z,6.04
2017-12-23T05:22:21.285Z,6.10
2017-12-23T05:24:47.052Z,6.14
2017-12-23T05:27:12.820Z,6.19
2017-12-23T05:29:38.572Z,6.19
2017-12-23T05:32:04.327Z,6.28
2017-12-23T05:34:30.071Z,6.36
2017-12-23T05:36:55.814Z,6.42
2017-12-23T05:39:21.567Z,6.50
2017-12-23T05:41:47.331Z,6.50
2017-12-23T05:44:13.072Z,6.58
2017-12-23T05:46:38.819Z,6.63
2017-12-23T05:49:04.579Z,6.64
2017-12-23T05:51:30.334Z,6.71
2017-12-23T05:53:56.095Z,6.75
2017-12-23T05:56:21.840Z,6.86
2017-12-23T05:58:47.587Z,6.92
2017-12-23T06:01:13.327Z,6.88
2017-12-23T06:03:39.102Z,6.92
2017-12-23T06:06:04.859Z,7.00
2017-12-23T06:08:30.626Z,7.02
2017-12-23T06:10:56.387Z,7.11
2017-12-23T06:13:22.155Z,7.14
2017-12-23T06:15:47.892Z,7.14
2017-12-23T06:18:13.650Z,7.14
2017-12-23T06:20:39.395Z,7.23
2017-12-23T06:23:05.159Z,7.27
2017-12-23T06:25:30.907Z,7.20
2017-12-23T06:27:56.646Z,7.22
2017-12-23T06:30:22.417Z,7.34
2017-12-23T06:32:48.171Z,7.27
2017-12-23T06:35:13.922Z,7.34
2017-12-23T06:37:39.672Z,7.38
2017-12-23T06:40:05.432Z,7.43
2017-12-23T06:42:31.204Z,7.42
2017-12-23T06:44:56.978Z,7.42
2017-12-23T06:47:22.730Z,7.42
2017-12-23T06:49:48.478Z,7.42
2017-12-23T06:52:14.224Z,7.46
2017-12-23T06:54:39.978Z,7.54
2017-12-23T06:57:05.732Z,7.51
2017-12-23T06:59:31.486Z,7.48
2017-12-23T07:01:57.239Z,7.49
2017-12-23T07:04:22.992Z,7.50
2017-12-23T07:06:48.761Z,7.55
2017-12-23T07:09:14.532Z,7.54
2017-12-23T07:11:40.280Z,7.55
2017-12-23T07:14:06.023Z,7.52
2017-12-23T07:16:31.804Z,7.56
2017-12-23T07:18:57.559Z,7.56
2017-12-23T07:21:23.328Z,7.56
2017-12-23T07:23:49.084Z,7.58
2017-12-23T07:26:14.847Z,7.54
2017-12-23T07:28:40.609Z,7.56
2017-12-23T07:31:06.383Z,7.57
2017-12-23T07:33:32.135Z,7.57
2017-12-23T07:35:57.903Z,7.60
2017-12-23T07:38:23.664Z,7.58
2017-12-23T07:40:49.457Z,7.59
2017-12-23T07:43:15.191Z,7.63
2017-12-23T07:45:40.951Z,7.63
2017-12-23T07:48:06.715Z,7.64
2017-12-23T07:50:32.472Z,7.64
2017-12-23T07:52:58.224Z,7.63
2017-12-23T07:55:24.004Z,7.68
2017-12-23T07:57:49.809Z,7.67
2017-12-23T08:00:15.555Z,7.68
2017-12-23T08:02:41.336Z,7.73
2017-12-23T08:05:07.105Z,7.70
2017-12-23T08:07:32.872Z,7.67
2017-12-23T08:09:58.623Z,7.71
2017-12-23T08:12:24.379Z,7.71
2017-12-23T08:14:50.125Z,7.75
2017-12-23T08:17:15.878Z,7.71
2017-12-23T08:19:41.656Z,7.77
2017-12-23T08:22:07.419Z,7.76
2017-12-23T08:24:33.178Z,7.78
2017-12-23T08:26:58.939Z,7.82
2017-12-23T08:29:24.691Z,7.82
2017-12-23T08:31:50.451Z,7.83
2017-12-23T08:34:16.196Z,7.84
2017-12-23T08:36:41.968Z,7.82
2017-12-23T08:39:07.755Z,7.81
2017-12-23T08:41:33.507Z,7.82
2017-12-23T08:43:59.267Z,7.81
2017-12-23T08:46:25.023Z,7.83
2017-12-23T08:48:50.771Z,7.84
2017-12-23T08:51:16.515Z,7.85
2017-12-23T08:53:42.271Z,7.81
2017-12-23T08:56:08.024Z,7.80
2017-12-23T08:58:33.788Z,7.80
2017-12-23T09:00:59.541Z,7.79
2017-12-23T09:03:25.315Z,7.78
2017-12-23T09:05:51.071Z,7.76
2017-12-23T09:08:16.830Z,7.77
2017-12-23T09:10:42.594Z,7.77
2017-12-23T09:13:08.343Z,7.76
2017-12-23T09:15:34.102Z,7.75
2017-12-23T09:17:59.851Z,7.75
2017-12-23T09:20:25.623Z,7.77
2017-12-23T09:22:51.386Z,7.76
2017-12-23T09:25:17.155Z,7.78
2017-12-23T09:27:42.915Z,7.77
2017-12-23T09:30:08.687Z,7.79
2017-12-23T09:32:34.426Z,7.81
2017-12-23T09:35:00.183Z,7.82
2017-12-23T09:37:25.939Z,7.82
2017-12-23T09:39:51.700Z,7.81
2017-12-23T09:42:17.451Z,7.83
2017-12-23T09:44:43.195Z,7.86
2017-12-23T09:47:08.944Z,7.87
2017-12-23T09:49:34.699Z,7.86
2017-12-23T09:52:00.447Z,7.84
2017-12-23T09:54:26.212Z,7.82
2017-12-23T09:56:51.971Z,7.80
2017-12-23T09:59:17.723Z,7.81
2017-12-23T10:01:43.467Z,7.80
2017-12-23T10:04:09.219Z,7.82
2017-12-23T10:06:34.971Z,7.79
2017-12-23T10:09:00.727Z,7.79
2017-12-23T10:11:26.502Z,7.78
2017-12-23T10:13:52.256Z,7.80
2017-12-23T10:16:18.002Z,7.80
2017-12-23T10:18:43.750Z,7.79
2017-12-23T10:21:09.575Z,7.78
2017-12-23T10:23:35.345Z,7.78
2017-12-23T10:26:01.075Z,7.78
2017-12-23T10:28:26.819Z,7.76
2017-12-23T10:30:52.566Z,7.77
2017-12-23T10:33:18.316Z,7.74
2017-12-23T10:35:44.068Z,7.74
2017-12-23T10:38:16.791Z,7.75
2017-12-23T10:40:42.554Z,7.74
2017-12-23T10:43:08.298Z,7.71
2017-12-23T10:45:34.064Z,7.72
2017-12-23T10:47:59.828Z,7.71
2017-12-23T10:50:25.575Z,7.70
2017-12-23T10:52:51.340Z,7.71
2017-12-23T10:55:17.100Z,7.69
2017-12-23T10:57:42.875Z,7.70
2017-12-23T11:00:08.628Z,7.71
2017-12-23T11:02:34.384Z,7.70
2017-12-23T11:05:00.140Z,7.69
2017-12-23T11:07:25.902Z,7.67
2017-12-23T11:09:51.659Z,7.69
2017-12-23T11:12:17.412Z,7.71
2017-12-23T11:14:43.160Z,7.70
2017-12-23T11:17:08.926Z,7.67
2017-12-23T11:19:34.665Z,7.68
2017-12-23T11:22:00.418Z,7.70
2017-12-23T11:24:26.155Z,7.73
2017-12-23T11:26:51.915Z,7.72
2017-12-23T11:29:17.667Z,7.74
2017-12-23T11:31:43.416Z,7.73
2017-12-23T11:34:09.163Z,7.72
2017-12-23T11:36:34.943Z,7.74
2017-12-23T11:39:00.695Z,7.85
2017-12-23T11:41:26.456Z,7.86
2017-12-23T11:43:52.214Z,7.84
2017-12-23T11:46:17.983Z,7.82
2017-12-23T11:48:43.740Z,7.82
2017-12-23T11:51:09.491Z,7.81
2017-12-23T11:53:35.239Z,7.80
2017-12-23T11:56:01.291Z,7.84
2017-12-23T11:58:28.007Z,7.77
2017-12-23T12:00:53.775Z,7.76
2017-12-23T12:03:19.540Z,7.76
2017-12-23T12:05:45.295Z,7.74
2017-12-23T12:08:11.063Z,7.70
2017-12-23T12:10:36.807Z,7.70
2017-12-23T12:13:02.576Z,7.68
2017-12-23T12:15:28.332Z,7.68
2017-12-23T12:17:54.094Z,7.65
2017-12-23T12:20:19.839Z,7.64
2017-12-23T12:22:45.598Z,7.64
2017-12-23T12:25:11.342Z,7.67
2017-12-23T12:27:37.096Z,7.64
2017-12-23T12:30:02.857Z,7.63
2017-12-23T12:32:28.613Z,7.65
2017-12-23T12:34:54.373Z,7.65
2017-12-23T12:37:20.131Z,7.64
2017-12-23T12:39:45.882Z,7.64
2017-12-23T12:42:11.651Z,7.67
2017-12-23T12:44:37.407Z,7.68
2017-12-23T12:47:03.171Z,7.67
2017-12-23T12:49:35.931Z,7.68
2017-12-23T12:52:02.692Z,7.67
2017-12-23T12:54:28.441Z,7.69
2017-12-23T12:56:54.241Z,7.68
2017-12-23T12:59:19.978Z,7.69
2017-12-23T13:01:45.755Z,7.72
2017-12-23T13:04:11.506Z,7.70
2017-12-23T13:06:37.262Z,7.73
2017-12-23T13:09:03.027Z,7.70
2017-12-23T13:11:28.795Z,7.70
2017-12-23T13:13:54.704Z,7.68
2017-12-23T13:16:20.488Z,7.71
2017-12-23T13:18:46.242Z,7.68
2017-12-23T13:21:11.995Z,7.66
2017-12-23T13:23:37.766Z,7.67
2017-12-23T13:26:03.532Z,7.66
2017-12-23T13:28:29.302Z,7.68
2017-12-23T13:30:55.055Z,7.64
2017-12-23T13:33:20.816Z,7.65
2017-12-23T13:35:46.580Z,7.65
2017-12-23T13:38:12.353Z,7.63
2017-12-23T13:40:38.119Z,7.63
2017-12-23T13:43:03.875Z,7.64
2017-12-23T13:45:29.618Z,7.64
2017-12-23T13:47:55.368Z,7.64
2017-12-23T13:50:21.146Z,7.65
2017-12-23T13:52:46.903Z,7.65
2017-12-23T13:55:12.664Z,7.67
2017-12-23T13:57:38.433Z,7.64
2017-12-23T14:00:04.201Z,7.64
2017-12-23T14:02:29.970Z,7.63
2017-12-23T14:04:55.726Z,8.11
2017-12-23T14:07:21.484Z,7.66
2017-12-23T14:09:47.248Z,7.66
2017-12-23T14:12:13.036Z,7.68
2017-12-23T14:14:38.795Z,7.66
2017-12-23T14:17:04.549Z,7.64
2017-12-23T14:19:30.307Z,7.64
2017-12-23T14:21:56.063Z,7.64
2017-12-23T14:24:21.845Z,7.64
2017-12-23T14:26:47.598Z,7.66
2017-12-23T14:29:13.352Z,7.63
2017-12-23T14:31:39.108Z,7.65
2017-12-23T14:34:05.987Z,7.68
2017-12-23T14:36:31.767Z,7.68
2017-12-23T14:38:57.522Z,7.67
2017-12-23T14:41:24.330Z,7.69
2017-12-23T14:43:50.083Z,7.69
2017-12-23T14:46:15.820Z,7.70
2017-12-23T14:48:41.600Z,7.71
2017-12-23T14:51:07.361Z,7.71
2017-12-23T14:53:33.110Z,7.73
2017-12-23T14:55:58.867Z,7.72
2017-12-23T14:58:24.624Z,7.76
2017-12-23T15:00:50.375Z,7.74
2017-12-23T15:03:16.124Z,7.76
2017-12-23T15:05:41.919Z,7.79
2017-12-23T15:08:07.675Z,7.79
2017-12-23T15:10:33.443Z,7.79
2017-12-23T15:12:59.195Z,7.79
2017-12-23T15:15:24.972Z,7.79
2017-12-23T15:17:50.730Z,7.79
2017-12-23T15:20:16.479Z,7.78
2017-12-23T15:22:42.233Z,7.79
2017-12-23T15:25:08.004Z,7.84
2017-12-23T15:27:33.774Z,7.80
2017-12-23T15:29:59.527Z,7.79
2017-12-23T15:32:25.348Z,7.81
2017-12-23T15:34:51.106Z,7.78
2017-12-23T15:37:16.867Z,7.80
2017-12-23T15:39:42.627Z,7.79
2017-12-23T15:42:08.412Z,7.87
2017-12-23T15:44:34.171Z,7.87
2017-12-23T15:46:59.943Z,7.89
2017-12-23T15:49:25.703Z,7.89
2017-12-23T15:51:51.458Z,7.93
2017-12-23T15:54:17.219Z,7.94
2017-12-23T15:56:42.997Z,7.93
2017-12-23T15:59:08.756Z,7.98
2017-12-23T16:01:34.528Z,7.97
2017-12-23T16:04:00.291Z,7.97
2017-12-23T16:06:26.060Z,7.96
2017-12-23T16:08:51.794Z,7.96
2017-12-23T16:11:17.555Z,7.96
2017-12-23T16:13:43.314Z,7.91
2017-12-23T16:16:09.080Z,7.93
2017-12-23T16:18:34.840Z,7.95
2017-12-23T16:21:00.590Z,7.93
2017-12-23T16:23:26.351Z,7.98
2017-12-23T16:25:52.140Z,7.93
2017-12-23T16:28:17.886Z,7.92
2017-12-23T16:30:43.632Z,7.94
2017-12-23T16:33:09.396Z,7.94
2017-12-23T16:35:35.143Z,7.94
2017-12-23T16:38:00.901Z,8.01
2017-12-23T16:40:26.730Z,7.96
2017-12-23T16:42:52.583Z,7.95
2017-12-23T16:45:18.344Z,7.96
2017-12-23T16:47:44.128Z,7.98
2017-12-23T16:50:09.887Z,8.02
2017-12-23T16:52:35.647Z,8.02
2017-12-23T16:55:01.409Z,8.01
2017-12-23T16:57:27.191Z,8.05
2017-12-23T16:59:52.967Z,8.09
2017-12-23T17:02:18.730Z,8.14
2017-12-23T17:04:44.500Z,8.10
2017-12-23T17:07:10.263Z,8.12
2017-12-23T17:09:36.036Z,8.14
2017-12-23T17:12:02.576Z,8.21
2017-12-23T17:14:28.340Z,8.18
2017-12-23T17:16:54.103Z,8.20
2017-12-23T17:19:19.859Z,8.26
2017-12-23T17:21:45.620Z,8.28
2017-12-23T17:24:11.371Z,8.30
2017-12-23T17:26:37.535Z,8.30
2017-12-23T17:29:15.719Z,8.32
2017-12-23T17:31:41.477Z,8.30
2017-12-23T17:34:07.235Z,8.37
2017-12-23T17:36:33.087Z,8.35
2017-12-23T17:38:58.866Z,8.28
2017-12-23T17:41:24.627Z,8.28
2017-12-23T17:43:50.383Z,8.29
2017-12-23T17:46:16.156Z,8.33
2017-12-23T17:48:41.916Z,8.25
2017-12-23T17:51:07.676Z,8.24
2017-12-23T17:53:33.431Z,8.23
2017-12-23T17:55:59.193Z,8.28
2017-12-23T17:58:24.946Z,8.26
2017-12-23T18:00:50.699Z,8.28
2017-12-23T18:03:16.468Z,8.21
2017-12-23T18:05:42.214Z,8.21
2017-12-23T18:08:07.976Z,8.16
2017-12-23T18:10:33.727Z,8.27
2017-12-23T18:12:59.485Z,8.22
2017-12-23T18:15:25.251Z,8.25
2017-12-23T18:17:51.046Z,8.24
2017-12-23T18:20:16.806Z,8.22
2017-12-23T18:22:42.592Z,8.21
2017-12-23T18:25:08.364Z,8.16
2017-12-23T18:27:34.145Z,8.16
2017-12-23T18:29:59.895Z,8.14
2017-12-23T18:32:25.660Z,8.13
2017-12-23T18:34:51.419Z,8.09
2017-12-23T18:37:17.188Z,8.07
2017-12-23T18:39:42.957Z,8.04
2017-12-23T18:42:08.751Z,8.01
2017-12-23T18:44:34.498Z,8.00
2017-12-23T18:47:00.260Z,8.00
2017-12-23T18:49:26.040Z,7.97
2017-12-23T18:51:51.787Z,7.94
2017-12-23T18:54:17.552Z,7.94
2017-12-23T18:56:43.303Z,7.89
2017-12-23T18:59:09.082Z,7.87
2017-12-23T19:01:34.835Z,7.86
2017-12-23T19:04:00.583Z,7.84
2017-12-23T19:06:26.331Z,7.83
2017-12-23T19:08:52.085Z,7.82
2017-12-23T19:11:17.847Z,7.80
2017-12-23T19:13:43.615Z,7.77
2017-12-23T19:16:09.370Z,7.78
2017-12-23T19:18:35.119Z,7.77
2017-12-23T19:21:00.868Z,7.76
2017-12-23T19:23:26.631Z,7.77
2017-12-23T19:25:52.403Z,7.76
2017-12-23T19:28:18.179Z,7.75
2017-12-23T19:30:43.927Z,7.79
2017-12-23T19:33:09.669Z,7.79
2017-12-23T19:35:35.423Z,7.76
2017-12-23T19:38:01.183Z,7.77
2017-12-23T19:40:26.952Z,7.81
2017-12-23T19:42:52.720Z,7.77
2017-12-23T19:45:18.491Z,7.78
2017-12-23T19:47:44.255Z,7.78
2017-12-23T19:50:10.028Z,7.81
2017-12-23T19:52:35.775Z,7.82
2017-12-23T19:55:01.537Z,7.79
2017-12-23T19:57:27.301Z,7.82
2017-12-23T19:59:53.074Z,7.84
2017-12-23T20:02:18.843Z,7.83
2017-12-23T20:04:44.598Z,7.83
2017-12-23T20:07:10.352Z,7.88
2017-12-23T20:09:36.103Z,7.92
2017-12-23T20:12:01.863Z,7.97
2017-12-23T20:14:27.615Z,8.02
2017-12-23T20:16:53.359Z,7.98
2017-12-23T20:19:19.108Z,7.97
2017-12-23T20:21:44.871Z,8.03
2017-12-23T20:24:10.637Z,8.03
2017-12-23T20:26:36.415Z,8.06
2017-12-23T20:29:02.176Z,8.02
2017-12-23T20:31:27.953Z,8.02
2017-12-23T20:33:53.703Z,8.05
2017-12-23T20:36:19.472Z,8.07
2017-12-23T20:38:45.228Z,8.05
2017-12-23T20:41:10.992Z,8.08
2017-12-23T20:43:36.752Z,8.09
2017-12-23T20:46:02.507Z,8.05
2017-12-23T20:48:28.291Z,8.08
2017-12-23T20:50:54.036Z,8.04
2017-12-23T20:53:19.812Z,8.06
2017-12-23T20:55:45.574Z,8.11
2017-12-23T20:58:11.347Z,8.16
2017-12-23T21:00:37.163Z,8.17
2017-12-23T21:03:02.905Z,8.22
2017-12-23T21:05:28.667Z,8.19
2017-12-23T21:07:54.430Z,8.20
2017-12-23T21:10:20.188Z,8.23
2017-12-23T21:12:45.960Z,8.20
2017-12-23T21:15:11.720Z,8.22
2017-12-23T21:17:37.480Z,8.22
2017-12-23T21:20:03.305Z,8.23
2017-12-23T21:22:29.079Z,8.23
2017-12-23T21:24:54.847Z,8.23
2017-12-23T21:27:20.591Z,8.28
2017-12-23T21:29:46.360Z,8.27
2017-12-23T21:32:12.104Z,8.26
2017-12-23T21:34:37.866Z,8.25
2017-12-23T21:37:03.626Z,8.27
2017-12-23T21:39:29.390Z,8.23
2017-12-23T21:41:55.148Z,8.21
2017-12-23T21:44:20.917Z,8.19
2017-12-23T21:46:46.687Z,8.22
2017-12-23T21:49:12.463Z,8.25
2017-12-23T21:51:38.216Z,8.24
2017-12-23T21:54:03.980Z,8.25
2017-12-23T21:56:29.739Z,8.19
2017-12-23T21:58:55.499Z,8.20
2017-12-23T22:01:21.243Z,8.28
2017-12-23T22:03:47.011Z,8.33
2017-12-23T22:06:12.770Z,8.32
2017-12-23T22:08:38.513Z,8.35
2017-12-23T22:11:04.275Z,8.37
2017-12-23T22:13:30.039Z,8.33
2017-12-23T22:15:55.806Z,8.33
2017-12-23T22:18:21.558Z,8.29
2017-12-23T22:20:47.324Z,8.25
2017-12-23T22:23:13.080Z,8.21
2017-12-23T22:25:38.852Z,8.32
2017-12-23T22:28:04.611Z,8.36
2017-12-23T22:30:30.380Z,8.33
2017-12-23T22:32:56.124Z,8.30
2017-12-23T22:35:21.888Z,8.33
2017-12-23T22:37:47.661Z,8.33
2017-12-23T22:40:13.443Z,8.47
2017-12-23T22:42:39.211Z,8.51
2017-12-23T22:45:04.981Z,8.67
2017-12-23T22:47:30.743Z,8.64
2017-12-23T22:49:56.508Z,8.50
2017-12-23T22:52:22.260Z,8.55
2017-12-23T22:54:47.999Z,8.53
2017-12-23T22:57:13.770Z,8.52
2017-12-23T22:59:39.536Z,8.57
2017-12-23T23:02:05.318Z,8.56
2017-12-23T23:04:31.075Z,8.57
2017-12-23T23:06:56.843Z,8.61
2017-12-23T23:09:22.597Z,8.53
2017-12-23T23:11:48.351Z,8.63
2017-12-23T23:14:14.095Z,8.71
2017-12-23T23:16:39.860Z,8.61
2017-12-23T23:19:05.611Z,8.75
2017-12-23T23:21:31.376Z,8.69
2017-12-23T23:23:57.130Z,8.65
2017-12-23T23:26:22.910Z,8.68
2017-12-23T23:28:48.661Z,8.67
2017-12-23T23:31:14.398Z,8.69
2017-12-23T23:33:40.163Z,8.59
2017-12-23T23:36:05.908Z,8.69
2017-12-23T23:38:31.681Z,8.64
2017-12-23T23:40:57.447Z,8.58
2017-12-23T23:43:23.276Z,8.68
2017-12-23T23:45:49.036Z,8.71
2017-12-23T23:48:14.796Z,8.71
2017-12-23T23:50:40.551Z,8.70
2017-12-23T23:53:06.319Z,8.74
2017-12-23T23:55:32.068Z,8.78
2017-12-23T23:57:57.835Z,8.75
